Time;durP1;ratioP1;P1;durP2;ratioP2;P2;SDS_P1;SDS_P2;PMS_P1;PMS_P2;Temp;Humidity;BMP_temperature;BMP_pressure;BME280_temperature;BME280_humidity;BME280_pressure;Samples;Min_cycle;Max_cycle;Signal;HPM_P1;HPM_P2
2021/05/15 00:02:04;;;;;;;1.43;0.90;;;;;;;8.83;100.00;100280.75;5054027;28;20442;-70
2021/05/15 00:04:30;;;;;;;1.10;0.70;;;;;;;8.75;100.00;100280.63;5054015;28;20464;-70
2021/05/15 00:06:56;;;;;;;0.83;0.57;;;;;;;8.73;100.00;100272.81;5053986;28;20446;-69
2021/05/15 00:09:23;;;;;;;1.13;1.00;;;;;;;8.67;100.00;100273.97;5053752;28;20442;-69
2021/05/15 00:11:49;;;;;;;1.47;1.17;;;;;;;8.68;100.00;100267.50;5053934;28;20446;-70
2021/05/15 00:14:15;;;;;;;1.10;0.67;;;;;;;8.56;100.00;100277.97;5053768;28;20818;-69
2021/05/15 00:16:41;;;;;;;0.90;0.80;;;;;;;8.54;100.00;100269.34;5053864;28;20439;-70
2021/05/15 00:19:07;;;;;;;3.33;0.93;;;;;;;8.52;100.00;100268.84;5053649;28;21025;-69
2021/05/15 00:21:33;;;;;;;2.73;0.93;;;;;;;8.49;100.00;100281.03;5053566;28;20442;-69
2021/05/15 00:23:59;;;;;;;2.50;1.40;;;;;;;8.41;100.00;100273.63;5053448;28;20445;-69
2021/05/15 00:26:27;;;;;;;4.60;1.73;;;;;;;8.37;100.00;100266.38;5053407;28;20458;-69
2021/05/15 00:28:53;;;;;;;1.10;0.70;;;;;;;8.33;100.00;100277.75;5053444;28;20442;-69
2021/05/15 00:31:19;;;;;;;1.03;0.60;;;;;;;8.32;100.00;100269.94;5053005;28;20862;-69
2021/05/15 00:33:45;;;;;;;1.23;0.90;;;;;;;8.21;100.00;100268.50;5053397;28;20798;-69
2021/05/15 00:36:11;;;;;;;0.80;0.80;;;;;;;8.09;100.00;100275.13;5053275;28;20466;-69
2021/05/15 00:38:37;;;;;;;1.80;0.87;;;;;;;8.18;100.00;100269.88;5053324;28;20461;-69
2021/05/15 00:41:03;;;;;;;1.97;0.70;;;;;;;8.12;100.00;100270.25;5053262;28;20442;-68
2021/05/15 00:43:30;;;;;;;2.20;0.67;;;;;;;8.13;100.00;100267.25;5053255;28;20445;-69
2021/05/15 00:45:57;;;;;;;1.33;0.83;;;;;;;8.14;100.00;100268.84;5052824;28;20481;-69
2021/05/15 00:48:23;;;;;;;0.90;0.60;;;;;;;8.11;100.00;100265.97;5053235;28;20444;-69
2021/05/15 00:50:49;;;;;;;1.77;1.47;;;;;;;8.07;100.00;100268.44;5053109;28;20482;-67
2021/05/15 00:53:15;;;;;;;0.40;0.30;;;;;;;8.04;100.00;100269.00;5053166;28;20438;-69
2021/05/15 00:55:41;;;;;;;0.80;0.50;;;;;;;7.88;100.00;100267.59;5053083;28;20458;-69
2021/05/15 00:58:07;;;;;;;1.70;1.30;;;;;;;7.78;100.00;100269.34;5053151;28;20439;-69
2021/05/15 01:00:35;;;;;;;2.10;0.70;;;;;;;7.61;100.00;100271.72;5053092;28;20438;-68
2021/05/15 01:03:00;;;;;;;1.23;0.50;;;;;;;7.52;100.00;100265.38;5053133;28;20442;-68
2021/05/15 01:05:27;;;;;;;0.87;0.60;;;;;;;7.52;100.00;100274.25;5052960;28;20466;-69
2021/05/15 01:07:53;;;;;;;2.63;0.97;;;;;;;7.51;100.00;100278.03;5052939;28;20447;-68
2021/05/15 01:10:19;;;;;;;1.13;0.93;;;;;;;7.43;100.00;100275.19;5055446;28;20486;-69
2021/05/15 01:12:48;;;;;;;0.97;0.70;;;;;;;7.45;100.00;100268.44;5056628;28;20442;-68
2021/05/15 01:15:15;;;;;;;1.97;1.00;;;;;;;7.38;100.00;100272.56;5056933;28;20556;-69
2021/05/15 01:17:49;;;;;;;0.70;0.70;;;;;;;7.28;100.00;100274.28;5057010;28;20492;-68
2021/05/15 01:20:16;;;;;;;1.50;1.40;;;;;;;7.26;100.00;100271.09;5056943;28;20423;-69
2021/05/15 01:22:43;;;;;;;1.17;0.60;;;;;;;7.23;100.00;100270.84;5056915;28;20442;-69
2021/05/15 01:25:10;;;;;;;1.00;0.90;;;;;;;7.27;100.00;100271.88;5056796;28;20458;-69
2021/05/15 01:27:36;;;;;;;1.73;1.23;;;;;;;7.23;100.00;100274.34;5056428;28;20937;-69
2021/05/15 01:30:04;;;;;;;2.60;1.10;;;;;;;7.14;100.00;100267.97;5056357;28;20489;-68
2021/05/15 01:32:30;;;;;;;2.23;0.73;;;;;;;7.06;100.00;100271.28;5056739;28;20446;-69
2021/05/15 01:34:56;;;;;;;2.30;0.83;;;;;;;7.11;100.00;100268.53;5056561;28;20983;-69
2021/05/15 01:37:22;;;;;;;1.07;0.50;;;;;;;7.07;100.00;100272.88;5056418;28;21022;-69
2021/05/15 01:39:49;;;;;;;1.10;0.77;;;;;;;7.11;100.00;100265.03;5056265;28;20442;-69
2021/05/15 01:42:14;;;;;;;0.93;0.90;;;;;;;7.06;100.00;100263.22;5056483;28;20442;-69
2021/05/15 01:44:40;;;;;;;2.07;1.50;;;;;;;7.03;100.00;100267.25;5056160;28;20547;-69
2021/05/15 01:47:06;;;;;;;0.70;0.70;;;;;;;6.91;100.00;100268.75;5056452;28;20427;-69
2021/05/15 01:49:33;;;;;;;0.70;0.40;;;;;;;6.89;100.00;100258.25;5055983;28;20540;-69
2021/05/15 01:51:59;;;;;;;0.87;0.87;;;;;;;6.82;100.00;100257.81;5056306;28;20450;-69
2021/05/15 01:54:24;;;;;;;3.20;1.23;;;;;;;6.79;100.00;100256.47;5056164;28;20513;-69
2021/05/15 01:56:51;;;;;;;2.17;1.67;;;;;;;6.70;100.00;100252.78;5056282;28;20438;-69
2021/05/15 01:59:17;;;;;;;2.00;1.53;;;;;;;6.65;100.00;100260.91;5056067;28;20442;-69
2021/05/15 02:01:43;;;;;;;0.83;0.67;;;;;;;6.67;100.00;100253.34;5056380;28;20503;-68
2021/05/15 02:04:09;;;;;;;0.70;0.70;;;;;;;6.47;100.00;100250.84;5055635;28;20525;-69
2021/05/15 02:06:35;;;;;;;2.30;0.70;;;;;;;6.41;100.00;100251.97;5055643;28;20442;-68
2021/05/15 02:09:01;;;;;;;1.43;1.10;;;;;;;6.38;100.00;100247.97;5055926;28;20496;-69
2021/05/15 02:11:27;;;;;;;1.47;0.60;;;;;;;6.47;100.00;100245.47;5055901;28;20478;-68
2021/05/15 02:13:54;;;;;;;0.47;0.40;;;;;;;6.56;100.00;100247.25;5055595;28;20442;-68
2021/05/15 02:16:20;;;;;;;1.30;1.13;;;;;;;6.48;100.00;100239.00;5055673;28;20462;-69
2021/05/15 02:18:46;;;;;;;0.57;0.57;;;;;;;6.54;100.00;100245.94;5055563;28;20522;-69
2021/05/15 02:21:12;;;;;;;1.93;0.70;;;;;;;6.56;100.00;100241.09;5055532;28;20446;-69
2021/05/15 02:23:38;;;;;;;1.03;0.93;;;;;;;6.57;100.00;100237.31;5055712;28;20944;-70
2021/05/15 02:26:05;;;;;;;0.83;0.50;;;;;;;6.61;100.00;100237.53;5055581;28;20458;-70
2021/05/15 02:28:31;;;;;;;1.77;1.50;;;;;;;6.52;100.00;100240.03;5055607;28;20880;-69
2021/05/15 02:30:58;;;;;;;0.50;0.50;;;;;;;6.49;100.00;100241.41;5055557;28;20481;-69
2021/05/15 02:33:24;;;;;;;6.43;0.87;;;;;;;6.47;100.00;100238.19;5055535;28;20445;-68
2021/05/15 02:35:51;;;;;;;1.33;0.87;;;;;;;6.41;100.00;100231.25;5055118;28;20462;-69
2021/05/15 02:38:18;;;;;;;0.60;0.60;;;;;;;6.32;100.00;100231.03;5055503;28;20492;-68
2021/05/15 02:40:46;;;;;;;2.20;1.17;;;;;;;6.37;100.00;100227.50;5055422;28;20438;-68
2021/05/15 02:43:13;;;;;;;1.43;1.00;;;;;;;6.29;100.00;100230.81;5055337;28;20453;-69
2021/05/15 02:45:39;;;;;;;2.00;1.07;;;;;;;6.27;100.00;100217.63;5055033;28;20487;-68
2021/05/15 02:48:06;;;;;;;2.10;1.03;;;;;;;6.15;100.00;100217.19;5055280;28;20442;-68
2021/05/15 02:50:33;;;;;;;0.50;0.40;;;;;;;6.13;100.00;100215.88;5054870;28;20495;-69
2021/05/15 02:52:59;;;;;;;1.87;1.73;;;;;;;6.08;100.00;100208.66;5055178;28;20817;-68
2021/05/15 02:55:26;;;;;;;2.80;0.60;;;;;;;6.07;100.00;100207.84;5055138;28;20911;-68
2021/05/15 02:57:54;;;;;;;0.73;0.73;;;;;;;6.12;100.00;100209.69;5054784;28;21014;-68
2021/05/15 03:00:23;;;;;;;1.43;1.20;;;;;;;6.15;100.00;100206.44;5054762;28;21010;-67
2021/05/15 03:02:49;;;;;;;0.70;0.50;;;;;;;6.19;100.00;100198.59;5054962;28;20434;-68
2021/05/15 03:05:18;;;;;;;0.60;0.50;;;;;;;6.25;100.00;100198.31;5054584;28;20470;-68
2021/05/15 03:07:44;;;;;;;1.20;1.10;;;;;;;6.22;100.00;100196.16;5054919;28;20457;-69
2021/05/15 03:10:11;;;;;;;1.07;0.60;;;;;;;6.29;100.00;100198.53;5054729;28;20482;-68
2021/05/15 03:12:38;;;;;;;1.00;0.50;;;;;;;6.25;100.00;100192.91;5054830;28;20445;-67
2021/05/15 03:15:06;;;;;;;1.17;0.60;;;;;;;6.19;100.00;100194.03;5054543;28;20984;-68
2021/05/15 03:17:32;;;;;;;1.13;1.03;;;;;;;6.27;100.00;100196.13;5054680;28;20453;-68
2021/05/15 03:19:58;;;;;;;0.73;0.60;;;;;;;6.16;100.00;100193.81;5054668;28;20812;-68
2021/05/15 03:22:25;;;;;;;1.47;1.10;;;;;;;6.19;100.00;100188.66;5054640;28;20445;-68
2021/05/15 03:24:51;;;;;;;1.30;0.57;;;;;;;6.23;100.00;100196.97;5054483;28;20466;-68
2021/05/15 03:27:17;;;;;;;2.30;1.07;;;;;;;6.20;100.00;100190.28;5054515;28;20929;-69
2021/05/15 03:29:43;;;;;;;0.80;0.80;;;;;;;6.26;100.00;100186.44;5054111;28;21014;-68
2021/05/15 03:32:09;;;;;;;1.57;0.63;;;;;;;6.36;100.00;100176.69;5053451;28;20934;-69
2021/05/15 03:34:35;;;;;;;2.13;0.90;;;;;;;6.20;100.00;100176.84;5054302;28;20470;-68
2021/05/15 03:37:01;;;;;;;1.43;0.80;;;;;;;6.23;100.00;100189.69;5054646;28;20453;-70
2021/05/15 03:39:28;;;;;;;5.87;1.40;;;;;;;6.21;100.00;100180.31;5054321;28;20453;-70
2021/05/15 03:41:54;;;;;;;0.80;0.60;;;;;;;6.30;100.00;100174.03;5054186;28;20504;-68
2021/05/15 03:44:20;;;;;;;3.67;2.70;;;;;;;6.25;100.00;100182.16;5053913;28;20438;-69
2021/05/15 03:46:46;;;;;;;1.00;0.83;;;;;;;6.21;100.00;100183.81;5065247;22;21006;-81
2021/05/15 03:49:12;;;;;;;1.17;0.77;;;;;;;6.17;100.00;100185.44;5034623;28;20535;-82
2021/05/15 03:51:39;;;;;;;1.50;1.37;;;;;;;6.22;100.00;100181.91;5034675;28;20573;-81
2021/05/15 03:54:05;;;;;;;1.97;0.80;;;;;;;6.32;100.00;100185.31;5034447;28;20911;-82
2021/05/15 03:56:32;;;;;;;0.93;0.47;;;;;;;6.49;100.00;100189.47;5073593;23;20493;-68
2021/05/15 03:58:58;;;;;;;3.07;0.57;;;;;;;6.57;100.00;100186.97;5053878;28;20446;-68
2021/05/15 04:01:24;;;;;;;1.83;0.97;;;;;;;6.73;100.00;100187.63;5053415;28;20442;-69
2021/05/15 04:03:50;;;;;;;1.00;0.87;;;;;;;6.82;100.00;100179.75;5053614;28;20438;-68
2021/05/15 04:06:16;;;;;;;2.60;0.60;;;;;;;6.94;100.00;100179.31;5053555;28;20455;-68
2021/05/15 04:08:42;;;;;;;0.70;0.70;;;;;;;7.05;100.00;100178.13;5053776;28;20859;-68
2021/05/15 04:11:09;;;;;;;0.60;0.50;;;;;;;7.00;100.00;100179.00;5053561;28;20488;-70
2021/05/15 04:13:42;;;;;;;1.50;1.40;;;;;;;7.03;100.00;100174.91;5053288;28;20953;-69
2021/05/15 04:16:15;;;;;;;1.47;1.13;;;;;;;7.15;100.00;100177.19;5053522;28;20466;-70
2021/05/15 04:18:41;;;;;;;1.30;1.20;;;;;;;7.33;100.00;100188.00;5053643;28;20450;-68
2021/05/15 04:21:07;;;;;;;1.37;0.87;;;;;;;7.47;100.00;100181.91;5053694;28;20450;-68
2021/05/15 04:23:33;;;;;;;4.30;2.30;;;;;;;7.45;100.00;100187.59;5053472;28;20450;-68
2021/05/15 04:26:00;;;;;;;2.50;1.10;;;;;;;7.41;100.00;100193.84;5053245;28;20515;-68
2021/05/15 04:28:26;;;;;;;1.20;1.10;;;;;;;7.37;100.00;100190.94;5053394;28;20458;-68
2021/05/15 04:30:53;;;;;;;1.43;0.93;;;;;;;7.52;100.00;100192.59;5052977;28;20486;-69
2021/05/15 04:33:23;;;;;;;2.37;0.97;;;;;;;7.54;100.00;100193.94;5053346;28;20454;-68
2021/05/15 04:35:49;;;;;;;1.63;1.17;;;;;;;7.62;100.00;100199.78;5053297;28;20549;-67
2021/05/15 04:38:16;;;;;;;1.83;1.20;;;;;;;7.74;100.00;100195.53;5053159;28;20964;-67
2021/05/15 04:40:42;;;;;;;1.03;0.60;;;;;;;7.73;100.00;100193.94;5053255;28;20458;-64
2021/05/15 04:43:08;;;;;;;1.20;0.87;;;;;;;7.86;100.00;100194.31;5052871;28;20438;-64
2021/05/15 04:45:34;;;;;;;1.63;0.70;;;;;;;7.88;100.00;100201.03;5052457;28;20583;-65
2021/05/15 04:48:01;;;;;;;2.10;1.07;;;;;;;7.86;100.00;100195.09;5053152;28;20454;-65
2021/05/15 04:50:27;;;;;;;1.00;1.00;;;;;;;7.98;100.00;100200.06;5052970;28;20559;-65
2021/05/15 04:52:53;;;;;;;2.63;1.43;;;;;;;8.08;100.00;100208.00;5053055;28;20450;-65
2021/05/15 04:55:19;;;;;;;1.30;1.20;;;;;;;8.21;100.00;100203.75;5052782;28;21058;-65
2021/05/15 04:57:45;;;;;;;2.30;1.13;;;;;;;8.27;100.00;100203.34;5053080;28;20477;-65
2021/05/15 05:00:12;;;;;;;3.10;1.20;;;;;;;8.42;100.00;100196.94;5052623;28;20972;-65
2021/05/15 05:02:38;;;;;;;1.50;0.80;;;;;;;8.48;100.00;100197.66;5053001;28;20449;-66
2021/05/15 05:05:07;;;;;;;2.33;1.70;;;;;;;8.62;100.00;100195.78;5052801;28;20449;-65
2021/05/15 05:07:33;;;;;;;0.80;0.77;;;;;;;8.77;100.00;100192.81;5052870;28;20438;-64
2021/05/15 05:09:59;;;;;;;1.23;0.80;;;;;;;8.93;100.00;100198.72;5052810;28;20489;-65
2021/05/15 05:12:25;;;;;;;1.00;0.90;;;;;;;9.07;100.00;100204.13;5052820;28;20453;-65
2021/05/15 05:14:51;;;;;;;2.90;1.30;;;;;;;9.21;100.00;100199.53;5052793;28;20449;-64
2021/05/15 05:17:17;;;;;;;1.27;1.00;;;;;;;9.37;100.00;100199.22;5052769;28;20457;-65
2021/05/15 05:19:43;;;;;;;1.37;0.90;;;;;;;9.54;100.00;100205.59;5052781;28;20477;-65
2021/05/15 05:22:09;;;;;;;4.03;1.20;;;;;;;9.81;100.00;100210.13;5052407;28;20438;-66
2021/05/15 05:24:35;;;;;;;2.40;1.30;;;;;;;10.06;100.00;100218.78;5052781;28;20438;-65
2021/05/15 05:27:02;;;;;;;3.10;1.83;;;;;;;10.25;100.00;100213.22;5052743;28;21046;-65
2021/05/15 05:29:28;;;;;;;2.83;1.93;;;;;;;10.45;100.00;100217.34;5052467;28;20816;-68
2021/05/15 05:31:54;;;;;;;3.27;2.67;;;;;;;10.58;100.00;100219.16;5052676;28;20478;-68
2021/05/15 05:34:21;;;;;;;2.23;1.63;;;;;;;10.72;100.00;100219.91;5052628;28;20446;-67
2021/05/15 05:36:48;;;;;;;2.13;1.83;;;;;;;10.83;100.00;100220.41;5052600;28;20466;-68
2021/05/15 05:39:17;;;;;;;2.93;1.67;;;;;;;10.89;100.00;100213.78;5052717;28;20499;-68
2021/05/15 05:41:44;;;;;;;3.23;2.00;;;;;;;11.00;100.00;100223.22;5052629;28;20438;-66
2021/05/15 05:44:10;;;;;;;2.97;2.10;;;;;;;11.14;100.00;100219.59;5052283;28;20956;-68
2021/05/15 05:46:36;;;;;;;3.70;2.17;;;;;;;11.19;99.16;100225.66;5052311;28;20465;-68
2021/05/15 05:49:02;;;;;;;2.63;1.90;;;;;;;11.29;99.21;100225.41;5052524;28;20466;-67
2021/05/15 05:51:28;;;;;;;1.90;1.20;;;;;;;11.37;98.94;100223.81;5052549;28;20482;-67
2021/05/15 05:53:54;;;;;;;5.20;1.70;;;;;;;11.42;98.66;100231.00;5052543;28;20525;-67
2021/05/15 05:56:20;;;;;;;4.87;2.50;;;;;;;11.41;98.37;100224.78;5054448;28;21019;-67
2021/05/15 05:58:47;;;;;;;3.80;2.00;;;;;;;11.44;98.64;100223.34;5055834;28;20810;-67
2021/05/15 06:01:13;;;;;;;2.50;1.60;;;;;;;11.51;99.09;100226.38;5056030;28;20445;-68
2021/05/15 06:03:39;;;;;;;2.67;1.90;;;;;;;11.59;98.87;100222.91;5056102;28;20857;-66
2021/05/15 06:06:05;;;;;;;3.37;1.90;;;;;;;11.68;98.68;100228.34;5055937;28;20464;-67
2021/05/15 06:08:31;;;;;;;2.60;1.93;;;;;;;11.76;98.57;100230.28;5055905;28;20450;-67
2021/05/15 06:10:58;;;;;;;9.57;1.77;;;;;;;11.87;98.69;100231.59;5055858;28;20489;-66
2021/05/15 06:13:25;;;;;;;4.90;2.10;;;;;;;11.94;98.60;100228.41;5056299;28;20529;-67
2021/05/15 06:15:52;;;;;;;5.37;2.57;;;;;;;11.92;97.70;100236.88;5055504;28;20462;-66
2021/05/15 06:18:18;;;;;;;3.00;2.00;;;;;;;11.98;97.69;100243.72;5055786;28;20446;-67
2021/05/15 06:20:44;;;;;;;2.73;2.37;;;;;;;12.03;97.51;100238.13;5055712;28;20453;-66
2021/05/15 06:23:10;;;;;;;4.77;2.93;;;;;;;12.21;97.32;100241.66;5055363;28;20541;-67
2021/05/15 06:25:36;;;;;;;4.90;3.33;;;;;;;12.31;96.16;100235.91;5055361;28;20485;-66
2021/05/15 06:28:02;;;;;;;2.83;2.13;;;;;;;12.26;94.60;100244.22;5055814;28;20442;-66
2021/05/15 06:30:29;;;;;;;4.07;2.40;;;;;;;12.28;95.76;100238.47;5055177;28;20508;-67
2021/05/15 06:32:55;;;;;;;4.80;2.80;;;;;;;12.32;96.52;100231.28;5055582;28;20446;-67
2021/05/15 06:35:21;;;;;;;10.63;2.67;;;;;;;12.42;96.26;100232.84;5055323;28;20465;-65
2021/05/15 06:37:47;;;;;;;3.70;2.13;;;;;;;12.54;96.33;100239.22;5055167;28;20544;-66
2021/05/15 06:40:13;;;;;;;3.90;2.53;;;;;;;12.66;96.41;100238.56;5055073;28;20443;-67
2021/05/15 06:42:39;;;;;;;2.30;2.00;;;;;;;12.86;95.78;100237.06;5055336;28;20438;-68
2021/05/15 06:45:08;;;;;;;6.33;3.10;;;;;;;13.01;94.71;100238.44;5055294;28;20447;-67
2021/05/15 06:47:34;;;;;;;3.43;2.40;;;;;;;13.01;93.43;100246.59;5055051;28;20813;-67
2021/05/15 06:50:01;;;;;;;3.80;1.77;;;;;;;12.93;91.72;100236.59;5055310;28;20535;-67
2021/05/15 06:52:27;;;;;;;3.47;1.63;;;;;;;12.82;92.74;100239.63;5054847;28;20505;-68
2021/05/15 06:54:53;;;;;;;2.00;1.73;;;;;;;12.80;92.62;100236.44;5054752;28;20971;-68
2021/05/15 06:57:19;;;;;;;3.87;2.10;;;;;;;12.81;91.91;100231.81;5055139;28;20541;-67
2021/05/15 06:59:45;;;;;;;8.67;2.10;;;;;;;12.82;91.80;100234.19;5055156;28;20475;-66
2021/05/15 07:02:11;;;;;;;5.90;1.60;;;;;;;12.93;92.38;100240.09;5054938;28;20783;-68
2021/05/15 07:04:38;;;;;;;2.97;1.37;;;;;;;13.00;91.57;100234.94;5054719;28;20438;-67
2021/05/15 07:07:04;;;;;;;1.70;1.60;;;;;;;13.00;92.11;100237.66;5053839;28;20473;-66
2021/05/15 07:09:30;;;;;;;2.43;1.73;;;;;;;13.00;92.51;100228.69;5054912;28;20437;-67
2021/05/15 07:11:56;;;;;;;1.97;1.30;;;;;;;13.04;91.62;100233.16;5054720;28;20485;-67
2021/05/15 07:14:22;;;;;;;2.27;1.20;;;;;;;13.09;89.43;100215.88;5054759;28;20442;-68
2021/05/15 07:16:48;;;;;;;1.50;1.20;;;;;;;13.08;88.39;100225.94;5054949;28;20991;-65
2021/05/15 07:19:15;;;;;;;1.93;1.20;;;;;;;13.20;87.70;100228.00;5054696;28;20434;-67
2021/05/15 07:21:42;;;;;;;1.50;1.30;;;;;;;13.32;87.39;100219.13;5054566;28;20445;-65
2021/05/15 07:24:09;;;;;;;1.63;1.50;;;;;;;13.41;87.42;100219.09;5054594;28;20446;-65
2021/05/15 07:26:35;;;;;;;2.67;2.20;;;;;;;13.53;87.17;100225.41;5053649;28;20485;-66
2021/05/15 07:29:01;;;;;;;2.60;1.90;;;;;;;13.60;87.21;100227.63;5054446;28;20468;-65
2021/05/15 07:31:27;;;;;;;1.90;1.23;;;;;;;13.61;88.60;100223.78;5053504;28;20482;-66
2021/05/15 07:33:53;;;;;;;2.30;1.10;;;;;;;13.70;89.19;100224.53;5054414;28;20446;-65
2021/05/15 07:36:19;;;;;;;1.90;1.53;;;;;;;13.82;86.70;100219.16;5036716;28;20467;-65
2021/05/15 07:38:47;;;;;;;1.73;1.57;;;;;;;13.85;87.58;100214.97;5033993;28;20443;-67
2021/05/15 07:41:13;;;;;;;4.30;3.00;;;;;;;13.95;88.14;100217.31;5049478;28;20991;-65
2021/05/15 07:43:39;;;;;;;1.90;1.57;;;;;;;14.04;86.79;100211.78;5054181;28;20437;-65
2021/05/15 07:46:05;;;;;;;2.20;2.00;;;;;;;14.09;83.51;100209.66;5040273;28;20466;-65
2021/05/15 07:48:38;;;;;;;2.20;1.67;;;;;;;14.13;83.65;100218.75;5048751;28;20451;-64
2021/05/15 07:51:06;;;;;;;4.33;1.50;;;;;;;14.16;84.12;100216.47;5052422;28;20498;-64
2021/05/15 07:53:32;;;;;;;1.73;1.50;;;;;;;14.24;84.30;100210.16;5040012;28;20454;-64
2021/05/15 07:55:59;;;;;;;2.40;1.63;;;;;;;14.32;83.49;100214.72;5034966;28;20471;-64
2021/05/15 07:58:25;;;;;;;3.20;2.20;;;;;;;14.39;82.15;100206.81;5034785;28;20473;-65
2021/05/15 08:00:51;;;;;;;4.77;2.70;;;;;;;14.42;83.52;100208.06;5033972;28;20950;-66
2021/05/15 08:03:17;;;;;;;2.20;1.87;;;;;;;14.51;83.89;100206.06;5039861;28;20458;-66
2021/05/15 08:05:43;;;;;;;3.83;2.07;;;;;;;14.56;84.86;100205.84;5051692;28;20486;-66
2021/05/15 08:08:09;;;;;;;3.30;2.10;;;;;;;14.60;83.43;100204.03;5053771;28;20525;-67
2021/05/15 08:10:35;;;;;;;2.80;2.13;;;;;;;14.68;82.37;100208.63;5052891;28;20929;-66
2021/05/15 08:13:03;;;;;;;1.53;1.43;;;;;;;14.76;82.35;100202.28;5033363;28;20499;-65
2021/05/15 08:15:29;;;;;;;2.50;2.30;;;;;;;14.79;84.22;100200.81;5033651;28;20881;-65
2021/05/15 08:17:56;;;;;;;4.43;3.13;;;;;;;14.87;83.52;100206.16;5052121;28;20477;-65
2021/05/15 08:20:23;;;;;;;4.50;2.07;;;;;;;15.04;82.12;100201.63;5053323;28;20442;-66
2021/05/15 08:22:49;;;;;;;2.80;1.80;;;;;;;15.17;81.78;100208.66;5053593;28;20446;-66
2021/05/15 08:25:16;;;;;;;3.73;2.80;;;;;;;15.25;81.98;100198.78;5052656;28;20468;-66
2021/05/15 08:27:49;;;;;;;3.07;1.80;;;;;;;15.28;81.36;100190.72;5053355;28;20564;-66
2021/05/15 08:30:18;;;;;;;3.17;2.60;;;;;;;15.37;81.18;100194.13;5042890;28;20443;-66
2021/05/15 08:32:45;;;;;;;4.30;2.20;;;;;;;15.32;82.21;100197.09;5033311;28;20443;-65
2021/05/15 08:35:12;;;;;;;3.20;2.00;;;;;;;15.41;82.29;100198.91;5035358;28;20834;-66
2021/05/15 08:37:38;;;;;;;3.03;2.50;;;;;;;15.54;81.22;100197.75;5053243;28;20446;-66
2021/05/15 08:40:07;;;;;;;3.40;2.50;;;;;;;15.63;80.97;100198.41;5051624;28;20442;-65
2021/05/15 08:42:35;;;;;;;4.30;2.83;;;;;;;15.81;77.54;100188.84;5052923;28;20450;-65
2021/05/15 08:45:03;;;;;;;3.57;2.30;;;;;;;15.95;78.15;100193.13;5053152;28;20499;-65
2021/05/15 08:47:31;;;;;;;4.23;3.20;;;;;;;16.08;77.26;100197.41;5046657;28;20451;-65
2021/05/15 08:50:01;;;;;;;2.37;1.90;;;;;;;16.21;76.38;100195.41;5033168;28;20443;-65
2021/05/15 08:52:27;;;;;;;6.40;3.00;;;;;;;16.24;75.31;100197.44;5037829;28;20442;-66
2021/05/15 08:54:54;;;;;;;3.57;2.50;;;;;;;16.29;74.53;100198.00;5052944;28;20460;-65
2021/05/15 08:57:20;;;;;;;3.50;2.63;;;;;;;16.34;74.63;100183.28;5049251;28;20450;-66
2021/05/15 08:59:49;;;;;;;6.00;2.63;;;;;;;16.39;73.74;100180.28;5034088;28;20439;-65
2021/05/15 09:02:15;;;;;;;5.20;2.93;;;;;;;16.56;74.94;100185.44;5032950;28;20950;-67
2021/05/15 09:04:42;;;;;;;4.40;2.70;;;;;;;16.66;75.87;100184.09;5033026;28;20465;-65
2021/05/15 09:07:10;;;;;;;2.30;1.70;;;;;;;16.67;76.76;100185.69;5033202;28;20474;-67
2021/05/15 09:09:36;;;;;;;4.83;2.83;;;;;;;16.74;73.53;100179.66;5053111;28;20453;-66
2021/05/15 09:12:03;;;;;;;2.60;2.20;;;;;;;16.82;73.78;100184.13;5052863;28;20488;-66
2021/05/15 09:14:29;;;;;;;3.80;2.50;;;;;;;16.99;72.79;100181.03;5033555;28;20447;-66
2021/05/15 09:16:57;;;;;;;2.30;2.10;;;;;;;17.16;70.32;100188.09;5032832;28;20499;-66
2021/05/15 09:19:24;;;;;;;3.23;2.50;;;;;;;17.31;70.25;100187.28;5048742;28;20827;-66
2021/05/15 09:21:59;;;;;;;3.67;2.27;;;;;;;17.59;69.01;100180.84;5032861;28;20439;-65
2021/05/15 09:24:27;;;;;;;4.83;2.83;;;;;;;17.75;68.75;100180.81;5050007;28;20513;-65
2021/05/15 09:26:53;;;;;;;5.60;3.00;;;;;;;17.76;69.36;100179.69;5052437;28;20976;-65
2021/05/15 09:29:19;;;;;;;2.63;2.27;;;;;;;17.84;70.19;100179.47;5036627;28;20478;-66
2021/05/15 09:31:46;;;;;;;3.70;2.77;;;;;;;18.12;70.82;100178.47;5036428;28;21009;-66
2021/05/15 09:34:12;;;;;;;3.50;2.80;;;;;;;18.43;70.38;100171.22;5056636;28;20442;-67
2021/05/15 09:36:39;;;;;;;2.70;2.43;;;;;;;18.56;65.10;100167.91;5056483;28;20458;-66
2021/05/15 09:39:09;;;;;;;3.03;2.43;;;;;;;18.57;63.10;100163.22;5056204;28;20450;-66
2021/05/15 09:41:37;;;;;;;2.10;1.50;;;;;;;18.55;63.22;100165.53;5055937;28;20442;-66
2021/05/15 09:44:04;;;;;;;4.27;2.40;;;;;;;18.46;62.90;100168.53;5055580;28;20453;-66
2021/05/15 09:46:33;;;;;;;1.90;1.53;;;;;;;18.15;62.81;100158.56;5055942;28;21007;-66
2021/05/15 09:48:59;;;;;;;2.80;2.33;;;;;;;18.09;64.56;100160.00;5036547;28;20953;-66
2021/05/15 09:51:26;;;;;;;3.40;2.00;;;;;;;18.18;67.41;100157.81;5036277;28;20483;-66
2021/05/15 09:53:52;;;;;;;3.40;2.47;;;;;;;18.09;66.98;100157.25;5053781;28;20445;-66
2021/05/15 09:56:29;;;;;;;3.90;2.80;;;;;;;17.93;66.90;100157.34;5055437;28;20478;-66
2021/05/15 09:58:56;;;;;;;3.27;2.13;;;;;;;17.96;69.63;100153.84;5055829;28;20445;-64
2021/05/15 10:01:23;;;;;;;3.93;2.90;;;;;;;17.98;67.66;100154.31;5056058;28;20434;-68
2021/05/15 10:03:59;;;;;;;3.33;1.97;;;;;;;17.98;69.87;100142.56;5054110;28;20438;-64
2021/05/15 10:06:24;;;;;;;2.00;1.70;;;;;;;18.10;69.59;100143.16;5055343;28;20504;-65
2021/05/15 10:08:50;;;;;;;3.90;2.50;;;;;;;18.35;66.85;100138.16;5055607;28;20438;-65
2021/05/15 10:11:17;;;;;;;3.63;2.50;;;;;;;18.61;66.84;100136.66;5055833;28;20482;-65
2021/05/15 10:13:44;;;;;;;2.30;2.07;;;;;;;18.80;65.46;100131.09;5042359;28;20533;-65
2021/05/15 10:16:10;;;;;;;3.17;2.10;;;;;;;18.97;66.13;100127.06;5035381;28;20980;-65
2021/05/15 10:18:36;;;;;;;3.43;2.07;;;;;;;18.95;63.91;100129.41;5046984;28;20504;-65
2021/05/15 10:21:03;;;;;;;3.47;2.37;;;;;;;18.79;61.59;100126.00;5055571;28;20930;-64
2021/05/15 10:23:35;;;;;;;2.77;1.80;;;;;;;18.80;62.09;100108.38;5039927;28;20447;-65
2021/05/15 10:26:04;;;;;;;3.00;2.00;;;;;;;18.90;60.57;100114.03;5035456;28;20517;-65
2021/05/15 10:28:32;;;;;;;2.50;1.80;;;;;;;18.94;61.68;100116.03;5050640;28;20476;-65
2021/05/15 10:31:13;;;;;;;3.37;2.47;;;;;;;18.79;61.15;100112.28;5055178;28;20544;-65
2021/05/15 10:33:41;;;;;;;3.10;2.20;;;;;;;18.58;59.53;100110.72;5054794;28;20450;-65
2021/05/15 10:36:18;;;;;;;1.73;1.47;;;;;;;18.46;62.58;100115.59;5055120;28;20507;-65
2021/05/15 10:38:45;;;;;;;2.57;1.80;;;;;;;18.46;62.67;100108.19;5038759;28;20866;-65
2021/05/15 10:41:14;;;;;;;4.13;2.10;;;;;;;18.48;64.29;100111.34;5038482;28;20439;-66
2021/05/15 10:43:42;;;;;;;2.03;1.83;;;;;;;18.42;66.18;100112.81;5036271;28;20512;-66
2021/05/15 10:46:18;;;;;;;10.37;2.50;;;;;;;18.35;67.95;100102.50;5035166;28;20495;-65
2021/05/15 10:48:55;;;;;;;2.17;1.90;;;;;;;18.24;70.15;100101.53;5037758;28;20432;-67
2021/05/15 10:51:30;;;;;;;1.60;1.50;;;;;;;18.17;69.02;100095.13;5054855;28;20655;-65
2021/05/15 10:53:58;;;;;;;1.43;1.33;;;;;;;18.26;66.89;100091.00;5050901;28;20431;-65
2021/05/15 10:56:28;;;;;;;1.50;1.30;;;;;;;18.51;63.86;100098.88;5034699;28;20912;-66
2021/05/15 10:59:02;;;;;;;0.70;0.70;;;;;;;18.65;61.88;100093.59;5037802;28;20446;-65
2021/05/15 11:01:42;;;;;;;0.93;0.83;;;;;;;18.85;63.96;100092.38;5054922;28;20419;-65
2021/05/15 11:04:17;;;;;;;0.80;0.67;;;;;;;19.00;56.62;100078.88;5050189;28;20965;-66
2021/05/15 11:06:55;;;;;;;1.23;0.90;;;;;;;19.07;56.65;100090.72;5034818;28;20474;-65
2021/05/15 11:09:21;;;;;;;0.63;0.60;;;;;;;19.10;59.84;100089.22;5039872;28;20511;-65
2021/05/15 11:11:49;;;;;;;0.50;0.40;;;;;;;19.11;56.22;100097.06;5052610;28;20984;-65
2021/05/15 11:14:26;;;;;;;0.60;0.40;;;;;;;19.06;55.18;100100.13;5034711;28;20521;-66
2021/05/15 11:17:11;;;;;;;3.20;0.60;;;;;;;18.76;53.69;100115.75;5036470;28;22563;-65
2021/05/15 11:19:38;;;;;;;0.90;0.60;;;;;;;18.47;55.44;100103.50;5054722;28;20437;-64
2021/05/15 11:22:04;;;;;;;0.50;0.50;;;;;;;18.08;59.23;100122.78;5050642;28;21008;-65
2021/05/15 11:24:32;;;;;;;0.67;0.67;;;;;;;17.97;61.14;100124.50;5038394;28;20454;-65